LIRZ/PEG METAR and TAF weather

Enter ICAO airport designator
Station Type Date Time Source
LIRZ METAR 2019/02/16 16:50 UTC NOAA

LIRZ 161650Z 03011KT CAVOK 13/M02 Q1028


Station Type Date Time Source
LIRZ Decoded METAR 2019/02/16 16:50 UTC NOAA

Perugia, Italy (LIRZ) 43-05N 012-30E 205M
Feb 16, 2019 - 11:50 AM EST / 2019.02.16 1650 UTC
Wind: from the NNE (030 degrees) at 13 MPH (11 KT):0
Visibility: greater than 7 mile(s):0
Temperature: 55 F (13 C)
Dew Point: 28 F (-2 C)
Relative Humidity: 35%
Pressure (altimeter): 30.36 in. Hg (1028 hPa)
ob: LIRZ 161650Z 03011KT CAVOK 13/M02 Q1028
cycle: 17

Station Type Date Time Source
LIRZ TAF 2019/02/16 18:21 UTC NOAA

TAF LIRZ 161700Z 1618/1718 VRB05KT CAVOK


Example: see airport list